Terminal Aerodrome Forecast
Issued by NWS Corpus Christi, TX

Home | Current Version | Previous Version | Text Only | Print | Product List | Glossary On
Versions: 1 2 3 4 5 6 7 8 9 10 11 12 13 14
000
FTUS44 KCRP 030532
TAFVCT
TAF
KVCT 030532Z 0306/0406 14006KT P6SM FEW018 SCT250
      TEMPO 0310/0314 4SM BR
     FM031400 16009KT P6SM VCSH BKN025
     FM031800 16013KT P6SM VCSH BKN035
     FM032100 15015G21KT P6SM BKN050
     FM040100 14010KT P6SM BKN025=

USA.gov is the U.S. government's official web portal to all federal, state and local government web resources and services.